sensor_id;sensor_type;location;lat;lon;timestamp;temperature;humidity
44843;DHT22;31884;52.538;13.820;2023-05-21T00:02:09;14.10;99.90
44843;DHT22;31884;52.538;13.820;2023-05-21T00:04:37;14.00;99.90
44843;DHT22;31884;52.538;13.820;2023-05-21T00:07:05;14.00;99.90
44843;DHT22;31884;52.538;13.820;2023-05-21T00:09:34;14.10;99.90
44843;DHT22;31884;52.538;13.820;2023-05-21T00:12:00;14.10;99.90
44843;DHT22;31884;52.538;13.820;2023-05-21T00:14:28;14.10;99.90
44843;DHT22;31884;52.538;13.820;2023-05-21T00:16:53;14.10;99.90
44843;DHT22;31884;52.538;13.820;2023-05-21T00:19:19;14.10;99.90
44843;DHT22;31884;52.538;13.820;2023-05-21T00:21:44;14.10;99.90
44843;DHT22;31884;52.538;13.820;2023-05-21T00:24:10;14.10;99.90
44843;DHT22;31884;52.538;13.820;2023-05-21T00:26:36;14.10;99.90
44843;DHT22;31884;52.538;13.820;2023-05-21T00:29:02;14.10;99.90
44843;DHT22;31884;52.538;13.820;2023-05-21T00:31:28;14.10;99.90
44843;DHT22;31884;52.538;13.820;2023-05-21T00:33:53;14.10;99.90
44843;DHT22;31884;52.538;13.820;2023-05-21T00:36:19;14.10;99.90
44843;DHT22;31884;52.538;13.820;2023-05-21T00:38:49;14.10;99.90
44843;DHT22;31884;52.538;13.820;2023-05-21T00:41:16;14.00;99.90
44843;DHT22;31884;52.538;13.820;2023-05-21T00:43:42;14.10;99.90
44843;DHT22;31884;52.538;13.820;2023-05-21T00:46:17;14.10;99.90
44843;DHT22;31884;52.538;13.820;2023-05-21T00:48:44;14.10;99.90
44843;DHT22;31884;52.538;13.820;2023-05-21T00:51:13;14.10;99.90
44843;DHT22;31884;52.538;13.820;2023-05-21T00:53:39;14.10;99.90
44843;DHT22;31884;52.538;13.820;2023-05-21T00:56:06;14.10;99.90
44843;DHT22;31884;52.538;13.820;2023-05-21T00:58:32;14.10;99.90
44843;DHT22;31884;52.538;13.820;2023-05-21T01:00:58;14.10;99.90
44843;DHT22;31884;52.538;13.820;2023-05-21T01:03:29;14.00;99.90
44843;DHT22;31884;52.538;13.820;2023-05-21T01:05:54;14.10;99.90
44843;DHT22;31884;52.538;13.820;2023-05-21T01:08:24;14.00;99.90
44843;DHT22;31884;52.538;13.820;2023-05-21T01:10:52;14.00;99.90
44843;DHT22;31884;52.538;13.820;2023-05-21T01:13:18;14.00;99.90
44843;DHT22;31884;52.538;13.820;2023-05-21T01:15:46;13.90;99.90
44843;DHT22;31884;52.538;13.820;2023-05-21T01:18:13;14.00;99.90
44843;DHT22;31884;52.538;13.820;2023-05-21T01:20:41;13.90;99.90
44843;DHT22;31884;52.538;13.820;2023-05-21T01:23:07;13.90;99.90
44843;DHT22;31884;52.538;13.820;2023-05-21T01:25:33;13.90;99.90
44843;DHT22;31884;52.538;13.820;2023-05-21T01:27:59;13.90;99.90
44843;DHT22;31884;52.538;13.820;2023-05-21T01:30:25;13.90;99.90
44843;DHT22;31884;52.538;13.820;2023-05-21T01:35:50;13.80;99.90
44843;DHT22;31884;52.538;13.820;2023-05-21T01:38:23;13.80;99.90
44843;DHT22;31884;52.538;13.820;2023-05-21T01:40:59;13.80;99.90
44843;DHT22;31884;52.538;13.820;2023-05-21T01:43:33;13.80;99.90
44843;DHT22;31884;52.538;13.820;2023-05-21T01:45:59;13.80;99.90
44843;DHT22;31884;52.538;13.820;2023-05-21T01:48:27;13.80;99.90
44843;DHT22;31884;52.538;13.820;2023-05-21T01:50:56;13.70;99.90
44843;DHT22;31884;52.538;13.820;2023-05-21T01:53:21;13.70;99.90
44843;DHT22;31884;52.538;13.820;2023-05-21T01:55:47;13.70;99.90
44843;DHT22;31884;52.538;13.820;2023-05-21T01:58:13;13.70;99.90
44843;DHT22;31884;52.538;13.820;2023-05-21T02:00:40;13.60;99.90
44843;DHT22;31884;52.538;13.820;2023-05-21T02:03:06;13.60;99.90
44843;DHT22;31884;52.538;13.820;2023-05-21T02:05:32;13.60;99.90
44843;DHT22;31884;52.538;13.820;2023-05-21T02:07:57;13.60;99.90
44843;DHT22;31884;52.538;13.820;2023-05-21T02:10:25;13.60;99.90
44843;DHT22;31884;52.538;13.820;2023-05-21T02:12:51;13.60;99.90
44843;DHT22;31884;52.538;13.820;2023-05-21T02:15:16;13.50;99.90
44843;DHT22;31884;52.538;13.820;2023-05-21T02:17:43;13.50;99.90
44843;DHT22;31884;52.538;13.820;2023-05-21T02:20:09;13.50;99.90
44843;DHT22;31884;52.538;13.820;2023-05-21T02:22:42;13.50;99.90
44843;DHT22;31884;52.538;13.820;2023-05-21T02:25:09;13.50;99.90
44843;DHT22;31884;52.538;13.820;2023-05-21T02:27:35;13.50;99.90
44843;DHT22;31884;52.538;13.820;2023-05-21T02:30:03;13.40;99.90
44843;DHT22;31884;52.538;13.820;2023-05-21T02:32:29;13.40;99.90
44843;DHT22;31884;52.538;13.820;2023-05-21T02:34:56;13.50;99.90
44843;DHT22;31884;52.538;13.820;2023-05-21T02:37:22;13.40;99.90
44843;DHT22;31884;52.538;13.820;2023-05-21T02:39:48;13.40;99.90
44843;DHT22;31884;52.538;13.820;2023-05-21T02:42:13;13.40;99.90
44843;DHT22;31884;52.538;13.820;2023-05-21T02:44:39;13.40;99.90
44843;DHT22;31884;52.538;13.820;2023-05-21T02:47:04;13.40;99.90
44843;DHT22;31884;52.538;13.820;2023-05-21T02:49:30;13.30;99.90
44843;DHT22;31884;52.538;13.820;2023-05-21T02:51:56;13.40;99.90
44843;DHT22;31884;52.538;13.820;2023-05-21T02:54:21;13.40;99.90
44843;DHT22;31884;52.538;13.820;2023-05-21T02:56:47;13.40;99.90
44843;DHT22;31884;52.538;13.820;2023-05-21T02:59:12;13.30;99.90
44843;DHT22;31884;52.538;13.820;2023-05-21T03:01:38;13.40;99.90
44843;DHT22;31884;52.538;13.820;2023-05-21T03:04:05;13.40;99.90
44843;DHT22;31884;52.538;13.820;2023-05-21T03:06:30;13.40;99.90
44843;DHT22;31884;52.538;13.820;2023-05-21T03:08:56;13.40;99.90
44843;DHT22;31884;52.538;13.820;2023-05-21T03:11:21;13.40;99.90
44843;DHT22;31884;52.538;13.820;2023-05-21T03:13:47;13.40;99.90
44843;DHT22;31884;52.538;13.820;2023-05-21T03:16:12;13.40;99.90
44843;DHT22;31884;52.538;13.820;2023-05-21T03:18:38;13.40;99.90
44843;DHT22;31884;52.538;13.820;2023-05-21T03:21:04;13.40;99.90
44843;DHT22;31884;52.538;13.820;2023-05-21T03:23:29;13.50;99.90
44843;DHT22;31884;52.538;13.820;2023-05-21T03:25:56;13.50;99.90
44843;DHT22;31884;52.538;13.820;2023-05-21T03:28:22;13.60;99.90
44843;DHT22;31884;52.538;13.820;2023-05-21T03:30:47;13.60;99.90
44843;DHT22;31884;52.538;13.820;2023-05-21T03:33:14;13.70;99.90
44843;DHT22;31884;52.538;13.820;2023-05-21T03:35:40;13.70;99.90
44843;DHT22;31884;52.538;13.820;2023-05-21T03:38:06;13.70;99.90
44843;DHT22;31884;52.538;13.820;2023-05-21T03:40:31;13.80;99.90
44843;DHT22;31884;52.538;13.820;2023-05-21T03:42:57;13.90;99.90
44843;DHT22;31884;52.538;13.820;2023-05-21T03:45:22;13.90;99.90
44843;DHT22;31884;52.538;13.820;2023-05-21T03:47:48;14.00;99.90
44843;DHT22;31884;52.538;13.820;2023-05-21T03:50:13;14.10;99.90
44843;DHT22;31884;52.538;13.820;2023-05-21T03:52:39;14.30;99.90
44843;DHT22;31884;52.538;13.820;2023-05-21T03:55:05;14.50;99.90
44843;DHT22;31884;52.538;13.820;2023-05-21T03:57:30;14.70;99.90
44843;DHT22;31884;52.538;13.820;2023-05-21T03:59:56;15.00;99.90
44843;DHT22;31884;52.538;13.820;2023-05-21T04:02:25;15.30;99.90
44843;DHT22;31884;52.538;13.820;2023-05-21T04:04:51;15.60;99.90
44843;DHT22;31884;52.538;13.820;2023-05-21T04:07:18;15.80;99.90
44843;DHT22;31884;52.538;13.820;2023-05-21T04:09:44;15.90;99.90
44843;DHT22;31884;52.538;13.820;2023-05-21T04:12:09;16.10;99.90
44843;DHT22;31884;52.538;13.820;2023-05-21T04:14:35;16.20;99.90
44843;DHT22;31884;52.538;13.820;2023-05-21T04:17:04;16.10;99.90
44843;DHT22;31884;52.538;13.820;2023-05-21T04:19:33;16.10;99.90
44843;DHT22;31884;52.538;13.820;2023-05-21T04:21:58;16.20;99.90
44843;DHT22;31884;52.538;13.820;2023-05-21T04:24:24;16.20;99.90
44843;DHT22;31884;52.538;13.820;2023-05-21T04:26:49;16.70;99.90
44843;DHT22;31884;52.538;13.820;2023-05-21T04:29:15;17.30;99.90
44843;DHT22;31884;52.538;13.820;2023-05-21T04:31:48;17.80;99.90
44843;DHT22;31884;52.538;13.820;2023-05-21T04:34:14;18.10;99.90
44843;DHT22;31884;52.538;13.820;2023-05-21T04:36:43;18.40;98.50
44843;DHT22;31884;52.538;13.820;2023-05-21T04:39:10;18.70;99.90
44843;DHT22;31884;52.538;13.820;2023-05-21T04:41:39;19.10;95.50
44843;DHT22;31884;52.538;13.820;2023-05-21T04:44:07;19.20;92.50
44843;DHT22;31884;52.538;13.820;2023-05-21T04:46:33;19.10;92.30
44843;DHT22;31884;52.538;13.820;2023-05-21T04:49:02;19.20;91.50
44843;DHT22;31884;52.538;13.820;2023-05-21T04:51:29;19.90;95.30
44843;DHT22;31884;52.538;13.820;2023-05-21T04:53:54;20.20;84.30
44843;DHT22;31884;52.538;13.820;2023-05-21T04:56:22;20.40;81.10
44843;DHT22;31884;52.538;13.820;2023-05-21T04:58:50;20.60;80.60
44843;DHT22;31884;52.538;13.820;2023-05-21T05:01:16;20.90;84.40
44843;DHT22;31884;52.538;13.820;2023-05-21T05:03:44;21.00;75.10
44843;DHT22;31884;52.538;13.820;2023-05-21T05:06:09;21.50;80.30
44843;DHT22;31884;52.538;13.820;2023-05-21T05:08:35;22.00;79.10
44843;DHT22;31884;52.538;13.820;2023-05-21T05:11:00;22.30;66.40
44843;DHT22;31884;52.538;13.820;2023-05-21T05:13:26;22.20;69.60
44843;DHT22;31884;52.538;13.820;2023-05-21T05:15:52;22.90;68.20
44843;DHT22;31884;52.538;13.820;2023-05-21T05:18:18;23.00;61.80
44843;DHT22;31884;52.538;13.820;2023-05-21T05:20:44;23.20;61.70
44843;DHT22;31884;52.538;13.820;2023-05-21T05:23:09;23.60;62.90
44843;DHT22;31884;52.538;13.820;2023-05-21T05:25:35;23.80;55.10
44843;DHT22;31884;52.538;13.820;2023-05-21T05:28:00;24.20;62.00
44843;DHT22;31884;52.538;13.820;2023-05-21T05:30:26;25.00;58.30
44843;DHT22;31884;52.538;13.820;2023-05-21T05:32:51;25.30;57.20
44843;DHT22;31884;52.538;13.820;2023-05-21T05:35:17;25.30;55.50
44843;DHT22;31884;52.538;13.820;2023-05-21T05:37:42;25.30;46.30
44843;DHT22;31884;52.538;13.820;2023-05-21T05:40:08;25.20;54.20
44843;DHT22;31884;52.538;13.820;2023-05-21T05:42:33;25.30;52.80
44843;DHT22;31884;52.538;13.820;2023-05-21T05:44:59;25.30;52.40
44843;DHT22;31884;52.538;13.820;2023-05-21T05:47:24;25.40;51.80
44843;DHT22;31884;52.538;13.820;2023-05-21T05:49:50;25.80;48.00
44843;DHT22;31884;52.538;13.820;2023-05-21T05:52:15;25.80;49.50
44843;DHT22;31884;52.538;13.820;2023-05-21T05:54:41;25.90;46.50
44843;DHT22;31884;52.538;13.820;2023-05-21T05:57:07;25.20;45.00
44843;DHT22;31884;52.538;13.820;2023-05-21T05:59:32;24.50;47.40
44843;DHT22;31884;52.538;13.820;2023-05-21T06:01:58;24.80;48.90
44843;DHT22;31884;52.538;13.820;2023-05-21T06:04:24;25.20;48.10
44843;DHT22;31884;52.538;13.820;2023-05-21T06:06:50;25.60;47.50
44843;DHT22;31884;52.538;13.820;2023-05-21T06:09:16;26.10;46.10
44843;DHT22;31884;52.538;13.820;2023-05-21T06:11:42;26.70;43.30
44843;DHT22;31884;52.538;13.820;2023-05-21T06:14:07;26.20;43.20
44843;DHT22;31884;52.538;13.820;2023-05-21T06:16:33;25.60;44.30
44843;DHT22;31884;52.538;13.820;2023-05-21T06:18:59;25.60;44.20
44843;DHT22;31884;52.538;13.820;2023-05-21T06:21:24;25.80;41.50
44843;DHT22;31884;52.538;13.820;2023-05-21T06:23:50;25.00;42.10
44843;DHT22;31884;52.538;13.820;2023-05-21T06:26:15;24.80;42.00
44843;DHT22;31884;52.538;13.820;2023-05-21T06:28:43;24.80;43.40
44843;DHT22;31884;52.538;13.820;2023-05-21T06:31:09;24.80;45.40
44843;DHT22;31884;52.538;13.820;2023-05-21T06:33:35;25.10;43.50
44843;DHT22;31884;52.538;13.820;2023-05-21T06:36:01;24.80;44.00
44843;DHT22;31884;52.538;13.820;2023-05-21T06:38:26;24.80;42.90
44843;DHT22;31884;52.538;13.820;2023-05-21T06:40:52;24.60;43.60
44843;DHT22;31884;52.538;13.820;2023-05-21T06:43:17;24.20;46.50
44843;DHT22;31884;52.538;13.820;2023-05-21T06:45:43;24.40;45.00
44843;DHT22;31884;52.538;13.820;2023-05-21T06:48:08;24.40;46.30
44843;DHT22;31884;52.538;13.820;2023-05-21T06:50:34;23.70;45.90
44843;DHT22;31884;52.538;13.820;2023-05-21T06:53:00;23.20;49.30
44843;DHT22;31884;52.538;13.820;2023-05-21T06:55:25;23.20;50.60
44843;DHT22;31884;52.538;13.820;2023-05-21T06:57:51;23.10;51.60
44843;DHT22;31884;52.538;13.820;2023-05-21T07:00:16;22.90;51.50
44843;DHT22;31884;52.538;13.820;2023-05-21T07:02:42;22.80;52.40
44843;DHT22;31884;52.538;13.820;2023-05-21T07:05:08;22.80;52.90
44843;DHT22;31884;52.538;13.820;2023-05-21T07:07:34;22.90;53.00
44843;DHT22;31884;52.538;13.820;2023-05-21T07:09:59;23.00;52.70
44843;DHT22;31884;52.538;13.820;2023-05-21T07:12:25;23.50;51.80
44843;DHT22;31884;52.538;13.820;2023-05-21T07:14:50;23.90;50.40
44843;DHT22;31884;52.538;13.820;2023-05-21T07:17:16;24.20;48.60
44843;DHT22;31884;52.538;13.820;2023-05-21T07:19:42;24.30;48.60
44843;DHT22;31884;52.538;13.820;2023-05-21T07:22:07;24.40;48.20
44843;DHT22;31884;52.538;13.820;2023-05-21T07:24:33;24.10;48.00
44843;DHT22;31884;52.538;13.820;2023-05-21T07:26:58;24.20;48.50
44843;DHT22;31884;52.538;13.820;2023-05-21T07:29:24;24.50;48.10
44843;DHT22;31884;52.538;13.820;2023-05-21T07:31:49;24.80;45.90
44843;DHT22;31884;52.538;13.820;2023-05-21T07:34:15;24.60;46.00
44843;DHT22;31884;52.538;13.820;2023-05-21T07:36:40;24.30;45.50
44843;DHT22;31884;52.538;13.820;2023-05-21T07:39:06;24.30;47.40
44843;DHT22;31884;52.538;13.820;2023-05-21T07:41:31;24.20;46.90
44843;DHT22;31884;52.538;13.820;2023-05-21T07:43:57;23.60;48.70
44843;DHT22;31884;52.538;13.820;2023-05-21T07:46:22;23.40;50.20
44843;DHT22;31884;52.538;13.820;2023-05-21T07:48:48;23.50;50.20
44843;DHT22;31884;52.538;13.820;2023-05-21T07:51:14;23.90;49.30
44843;DHT22;31884;52.538;13.820;2023-05-21T07:53:40;24.00;47.80
44843;DHT22;31884;52.538;13.820;2023-05-21T07:56:06;23.60;48.90
44843;DHT22;31884;52.538;13.820;2023-05-21T07:58:31;23.60;49.60
44843;DHT22;31884;52.538;13.820;2023-05-21T08:00:59;23.60;49.70
44843;DHT22;31884;52.538;13.820;2023-05-21T08:03:25;23.70;49.90
44843;DHT22;31884;52.538;13.820;2023-05-21T08:05:52;24.10;49.00
44843;DHT22;31884;52.538;13.820;2023-05-21T08:08:18;24.20;48.70
44843;DHT22;31884;52.538;13.820;2023-05-21T08:10:44;24.10;47.40
44843;DHT22;31884;52.538;13.820;2023-05-21T08:13:14;24.00;48.40
44843;DHT22;31884;52.538;13.820;2023-05-21T08:15:40;24.30;47.60
44843;DHT22;31884;52.538;13.820;2023-05-21T08:18:05;24.90;45.20
44843;DHT22;31884;52.538;13.820;2023-05-21T08:20:31;25.60;43.70
44843;DHT22;31884;52.538;13.820;2023-05-21T08:22:57;26.40;39.50
44843;DHT22;31884;52.538;13.820;2023-05-21T08:25:25;26.40;40.20
44843;DHT22;31884;52.538;13.820;2023-05-21T08:27:50;26.80;39.50
44843;DHT22;31884;52.538;13.820;2023-05-21T08:30:16;27.30;38.30
44843;DHT22;31884;52.538;13.820;2023-05-21T08:32:41;27.00;34.00
44843;DHT22;31884;52.538;13.820;2023-05-21T08:35:07;26.70;37.20
44843;DHT22;31884;52.538;13.820;2023-05-21T08:37:33;27.40;34.90
44843;DHT22;31884;52.538;13.820;2023-05-21T08:39:58;26.90;35.60
44843;DHT22;31884;52.538;13.820;2023-05-21T08:42:43;27.00;36.30
44843;DHT22;31884;52.538;13.820;2023-05-21T08:45:11;26.80;34.10
44843;DHT22;31884;52.538;13.820;2023-05-21T08:47:40;26.30;34.70
44843;DHT22;31884;52.538;13.820;2023-05-21T08:50:09;26.30;34.90
44843;DHT22;31884;52.538;13.820;2023-05-21T08:52:35;26.70;34.80
44843;DHT22;31884;52.538;13.820;2023-05-21T08:55:04;26.40;33.30
44843;DHT22;31884;52.538;13.820;2023-05-21T08:57:30;26.50;33.90
44843;DHT22;31884;52.538;13.820;2023-05-21T08:59:57;26.20;35.70
44843;DHT22;31884;52.538;13.820;2023-05-21T09:02:23;26.30;34.40
44843;DHT22;31884;52.538;13.820;2023-05-21T09:04:50;26.40;34.50
44843;DHT22;31884;52.538;13.820;2023-05-21T09:07:25;26.60;34.80
44843;DHT22;31884;52.538;13.820;2023-05-21T09:10:07;27.00;31.90
44843;DHT22;31884;52.538;13.820;2023-05-21T09:12:36;26.30;34.40
44843;DHT22;31884;52.538;13.820;2023-05-21T09:15:02;26.30;33.20
44843;DHT22;31884;52.538;13.820;2023-05-21T09:17:28;26.30;34.10
44843;DHT22;31884;52.538;13.820;2023-05-21T09:20:13;26.40;34.30
44843;DHT22;31884;52.538;13.820;2023-05-21T09:22:43;26.20;34.30
44843;DHT22;31884;52.538;13.820;2023-05-21T09:25:10;25.90;35.00
44843;DHT22;31884;52.538;13.820;2023-05-21T09:27:37;25.80;35.90
44843;DHT22;31884;52.538;13.820;2023-05-21T09:30:03;25.70;36.50
44843;DHT22;31884;52.538;13.820;2023-05-21T09:32:29;25.80;36.90
44843;DHT22;31884;52.538;13.820;2023-05-21T09:34:55;26.30;36.10
44843;DHT22;31884;52.538;13.820;2023-05-21T09:37:20;26.30;33.90
44843;DHT22;31884;52.538;13.820;2023-05-21T09:39:47;26.50;33.70
44843;DHT22;31884;52.538;13.820;2023-05-21T09:42:13;26.30;33.10
44843;DHT22;31884;52.538;13.820;2023-05-21T09:44:41;26.30;33.20
44843;DHT22;31884;52.538;13.820;2023-05-21T09:47:07;26.30;34.10
44843;DHT22;31884;52.538;13.820;2023-05-21T09:49:36;26.20;33.60
44843;DHT22;31884;52.538;13.820;2023-05-21T09:52:01;26.20;32.20
44843;DHT22;31884;52.538;13.820;2023-05-21T09:54:31;25.80;33.60
44843;DHT22;31884;52.538;13.820;2023-05-21T09:56:59;25.60;35.20
44843;DHT22;31884;52.538;13.820;2023-05-21T09:59:35;25.60;34.90
44843;DHT22;31884;52.538;13.820;2023-05-21T10:02:01;25.80;34.50
44843;DHT22;31884;52.538;13.820;2023-05-21T10:04:27;25.70;32.70
44843;DHT22;31884;52.538;13.820;2023-05-21T10:06:55;25.60;33.80
44843;DHT22;31884;52.538;13.820;2023-05-21T10:09:22;25.70;34.30
44843;DHT22;31884;52.538;13.820;2023-05-21T10:11:50;26.00;34.80
44843;DHT22;31884;52.538;13.820;2023-05-21T10:14:24;26.10;33.70
44843;DHT22;31884;52.538;13.820;2023-05-21T10:16:51;26.00;33.60
44843;DHT22;31884;52.538;13.820;2023-05-21T10:19:19;25.90;33.80
44843;DHT22;31884;52.538;13.820;2023-05-21T10:21:46;26.00;32.90
44843;DHT22;31884;52.538;13.820;2023-05-21T10:24:12;26.10;34.10
44843;DHT22;31884;52.538;13.820;2023-05-21T10:26:38;25.90;33.70
44843;DHT22;31884;52.538;13.820;2023-05-21T10:29:06;26.00;34.20
44843;DHT22;31884;52.538;13.820;2023-05-21T10:31:32;26.10;33.10
44843;DHT22;31884;52.538;13.820;2023-05-21T10:33:59;26.10;32.40
44843;DHT22;31884;52.538;13.820;2023-05-21T10:36:29;26.20;32.00
44843;DHT22;31884;52.538;13.820;2023-05-21T10:38:56;26.10;29.90
44843;DHT22;31884;52.538;13.820;2023-05-21T10:41:22;26.30;30.60
44843;DHT22;31884;52.538;13.820;2023-05-21T10:43:59;26.20;28.90
44843;DHT22;31884;52.538;13.820;2023-05-21T10:46:36;26.30;27.70
44843;DHT22;31884;52.538;13.820;2023-05-21T10:49:29;26.10;27.10
44843;DHT22;31884;52.538;13.820;2023-05-21T10:52:27;26.30;27.00
44843;DHT22;31884;52.538;13.820;2023-05-21T11:00:41;26.40;25.50
44843;DHT22;31884;52.538;13.820;2023-05-21T11:03:10;26.50;25.40
44843;DHT22;31884;52.538;13.820;2023-05-21T11:05:49;26.50;24.40
44843;DHT22;31884;52.538;13.820;2023-05-21T11:08:29;26.60;23.60
44843;DHT22;31884;52.538;13.820;2023-05-21T11:11:01;26.60;24.20
44843;DHT22;31884;52.538;13.820;2023-05-21T11:13:28;26.80;24.70
44843;DHT22;31884;52.538;13.820;2023-05-21T11:21:05;26.40;23.30
44843;DHT22;31884;52.538;13.820;2023-05-21T11:26:18;26.50;22.20
44843;DHT22;31884;52.538;13.820;2023-05-21T11:28:44;26.40;22.80
44843;DHT22;31884;52.538;13.820;2023-05-21T11:33:47;26.60;22.80
44843;DHT22;31884;52.538;13.820;2023-05-21T11:36:12;26.80;21.40
44843;DHT22;31884;52.538;13.820;2023-05-21T11:38:38;26.60;20.70
44843;DHT22;31884;52.538;13.820;2023-05-21T11:41:03;26.40;21.50
44843;DHT22;31884;52.538;13.820;2023-05-21T11:43:29;26.50;22.20
44843;DHT22;31884;52.538;13.820;2023-05-21T11:45:55;26.60;22.10
44843;DHT22;31884;52.538;13.820;2023-05-21T11:48:23;26.80;21.90
44843;DHT22;31884;52.538;13.820;2023-05-21T11:50:49;26.80;22.00
44843;DHT22;31884;52.538;13.820;2023-05-21T11:53:15;26.90;22.60
44843;DHT22;31884;52.538;13.820;2023-05-21T11:55:40;26.80;22.40
44843;DHT22;31884;52.538;13.820;2023-05-21T11:58:08;26.80;22.40
44843;DHT22;31884;52.538;13.820;2023-05-21T12:00:38;26.80;22.60
44843;DHT22;31884;52.538;13.820;2023-05-21T12:03:04;26.70;22.60
44843;DHT22;31884;52.538;13.820;2023-05-21T12:05:43;26.50;21.80
44843;DHT22;31884;52.538;13.820;2023-05-21T12:08:09;26.30;21.50
44843;DHT22;31884;52.538;13.820;2023-05-21T12:10:36;26.30;22.40
44843;DHT22;31884;52.538;13.820;2023-05-21T12:13:03;26.40;22.60
44843;DHT22;31884;52.538;13.820;2023-05-21T12:15:29;26.40;22.10
44843;DHT22;31884;52.538;13.820;2023-05-21T12:17:55;26.40;22.20
44843;DHT22;31884;52.538;13.820;2023-05-21T12:20:21;26.50;21.70
44843;DHT22;31884;52.538;13.820;2023-05-21T12:22:49;26.50;21.30
44843;DHT22;31884;52.538;13.820;2023-05-21T12:25:19;26.50;22.00
44843;DHT22;31884;52.538;13.820;2023-05-21T12:27:45;26.50;21.70
44843;DHT22;31884;52.538;13.820;2023-05-21T12:30:11;26.60;21.60
44843;DHT22;31884;52.538;13.820;2023-05-21T12:32:40;26.70;20.40
44843;DHT22;31884;52.538;13.820;2023-05-21T12:35:08;26.80;20.80
44843;DHT22;31884;52.538;13.820;2023-05-21T12:37:44;26.90;20.80
44843;DHT22;31884;52.538;13.820;2023-05-21T12:40:09;27.10;20.30
44843;DHT22;31884;52.538;13.820;2023-05-21T12:42:36;27.10;19.30
44843;DHT22;31884;52.538;13.820;2023-05-21T12:45:07;27.00;19.70
44843;DHT22;31884;52.538;13.820;2023-05-21T12:47:33;27.10;19.50
44843;DHT22;31884;52.538;13.820;2023-05-21T12:50:00;27.00;19.80
44843;DHT22;31884;52.538;13.820;2023-05-21T12:52:26;27.10;19.90
44843;DHT22;31884;52.538;13.820;2023-05-21T12:54:53;27.00;19.00
44843;DHT22;31884;52.538;13.820;2023-05-21T12:57:20;26.90;19.20
44843;DHT22;31884;52.538;13.820;2023-05-21T12:59:52;27.00;19.50
44843;DHT22;31884;52.538;13.820;2023-05-21T13:02:40;27.10;18.50
44843;DHT22;31884;52.538;13.820;2023-05-21T13:05:07;26.90;18.30
44843;DHT22;31884;52.538;13.820;2023-05-21T13:07:35;26.90;19.50
44843;DHT22;31884;52.538;13.820;2023-05-21T13:10:01;26.80;18.70
44843;DHT22;31884;52.538;13.820;2023-05-21T13:12:28;26.80;19.10
44843;DHT22;31884;52.538;13.820;2023-05-21T13:14:58;26.80;18.10
44843;DHT22;31884;52.538;13.820;2023-05-21T13:17:25;26.60;18.40
44843;DHT22;31884;52.538;13.820;2023-05-21T13:22:39;26.70;18.00
44843;DHT22;31884;52.538;13.820;2023-05-21T13:25:11;26.80;19.00
44843;DHT22;31884;52.538;13.820;2023-05-21T13:27:40;26.80;19.00
44843;DHT22;31884;52.538;13.820;2023-05-21T13:30:07;26.80;18.30
44843;DHT22;31884;52.538;13.820;2023-05-21T13:32:33;26.80;18.40
44843;DHT22;31884;52.538;13.820;2023-05-21T13:34:58;26.80;17.40
44843;DHT22;31884;52.538;13.820;2023-05-21T13:37:24;26.70;18.10
44843;DHT22;31884;52.538;13.820;2023-05-21T13:39:49;26.70;17.60
44843;DHT22;31884;52.538;13.820;2023-05-21T13:42:15;26.70;17.50
44843;DHT22;31884;52.538;13.820;2023-05-21T13:44:40;26.70;18.00
44843;DHT22;31884;52.538;13.820;2023-05-21T13:47:06;26.80;18.00
44843;DHT22;31884;52.538;13.820;2023-05-21T13:49:33;26.80;17.70
44843;DHT22;31884;52.538;13.820;2023-05-21T13:51:59;26.90;17.80
44843;DHT22;31884;52.538;13.820;2023-05-21T13:54:25;26.90;17.40
44843;DHT22;31884;52.538;13.820;2023-05-21T13:56:51;26.90;16.60
44843;DHT22;31884;52.538;13.820;2023-05-21T13:59:16;27.00;17.30
44843;DHT22;31884;52.538;13.820;2023-05-21T14:01:42;27.10;17.00
44843;DHT22;31884;52.538;13.820;2023-05-21T14:04:10;27.10;17.00
44843;DHT22;31884;52.538;13.820;2023-05-21T14:06:35;27.00;16.30
44843;DHT22;31884;52.538;13.820;2023-05-21T14:09:02;26.90;15.80
44843;DHT22;31884;52.538;13.820;2023-05-21T14:11:29;27.00;16.50
44843;DHT22;31884;52.538;13.820;2023-05-21T14:13:54;27.10;15.70
44843;DHT22;31884;52.538;13.820;2023-05-21T14:16:20;27.00;16.20
44843;DHT22;31884;52.538;13.820;2023-05-21T14:18:49;27.00;15.70
44843;DHT22;31884;52.538;13.820;2023-05-21T14:21:14;26.80;15.60
44843;DHT22;31884;52.538;13.820;2023-05-21T14:23:40;26.90;15.90
44843;DHT22;31884;52.538;13.820;2023-05-21T14:26:05;26.80;15.40
44843;DHT22;31884;52.538;13.820;2023-05-21T14:28:31;26.80;15.60
44843;DHT22;31884;52.538;13.820;2023-05-21T14:30:56;26.60;15.90
44843;DHT22;31884;52.538;13.820;2023-05-21T14:33:22;26.70;16.20
44843;DHT22;31884;52.538;13.820;2023-05-21T14:35:47;26.60;16.00
44843;DHT22;31884;52.538;13.820;2023-05-21T14:38:13;26.50;16.20
44843;DHT22;31884;52.538;13.820;2023-05-21T14:40:38;26.50;17.00
44843;DHT22;31884;52.538;13.820;2023-05-21T14:43:04;26.60;16.70
44843;DHT22;31884;52.538;13.820;2023-05-21T14:45:30;26.70;16.00
44843;DHT22;31884;52.538;13.820;2023-05-21T14:47:58;26.60;16.10
44843;DHT22;31884;52.538;13.820;2023-05-21T14:50:24;26.50;15.60
44843;DHT22;31884;52.538;13.820;2023-05-21T14:52:49;26.50;15.90
44843;DHT22;31884;52.538;13.820;2023-05-21T14:55:15;26.30;15.30
44843;DHT22;31884;52.538;13.820;2023-05-21T14:57:43;26.20;15.30
44843;DHT22;31884;52.538;13.820;2023-05-21T15:00:09;26.20;16.40
44843;DHT22;31884;52.538;13.820;2023-05-21T15:02:35;26.20;15.60
44843;DHT22;31884;52.538;13.820;2023-05-21T15:05:01;26.30;15.90
44843;DHT22;31884;52.538;13.820;2023-05-21T15:07:27;26.30;15.60
44843;DHT22;31884;52.538;13.820;2023-05-21T15:09:52;26.20;15.70
44843;DHT22;31884;52.538;13.820;2023-05-21T15:12:18;26.10;15.60
44843;DHT22;31884;52.538;13.820;2023-05-21T15:14:43;26.10;15.50
44843;DHT22;31884;52.538;13.820;2023-05-21T15:17:08;26.00;15.70
44843;DHT22;31884;52.538;13.820;2023-05-21T15:19:34;26.10;15.90
44843;DHT22;31884;52.538;13.820;2023-05-21T15:21:59;26.00;15.80
44843;DHT22;31884;52.538;13.820;2023-05-21T15:24:25;26.00;16.20
44843;DHT22;31884;52.538;13.820;2023-05-21T15:26:50;26.10;16.30
44843;DHT22;31884;52.538;13.820;2023-05-21T15:29:16;26.10;16.50
44843;DHT22;31884;52.538;13.820;2023-05-21T15:31:41;26.00;15.40
44843;DHT22;31884;52.538;13.820;2023-05-21T15:34:07;26.00;16.30
44843;DHT22;31884;52.538;13.820;2023-05-21T15:36:32;26.00;15.60